sensor_id;sensor_type;location;lat;lon;timestamp;P1;durP1;ratioP1;P2;durP2;ratioP2
26822;SDS011;14852;51.910;8.878;2022-12-10T00:01:49;18.33;;;12.40;;
26822;SDS011;14852;51.910;8.878;2022-12-10T00:04:17;17.30;;;12.70;;
26822;SDS011;14852;51.910;8.878;2022-12-10T00:06:44;17.63;;;10.45;;
26822;SDS011;14852;51.910;8.878;2022-12-10T00:09:11;17.55;;;11.90;;
26822;SDS011;14852;51.910;8.878;2022-12-10T00:11:42;18.73;;;12.80;;
26822;SDS011;14852;51.910;8.878;2022-12-10T00:14:08;14.90;;;11.02;;
26822;SDS011;14852;51.910;8.878;2022-12-10T00:16:36;14.88;;;10.68;;
26822;SDS011;14852;51.910;8.878;2022-12-10T00:19:02;14.88;;;10.63;;
26822;SDS011;14852;51.910;8.878;2022-12-10T00:21:30;19.67;;;11.48;;
26822;SDS011;14852;51.910;8.878;2022-12-10T00:23:58;14.20;;;10.90;;
26822;SDS011;14852;51.910;8.878;2022-12-10T00:26:31;18.58;;;11.50;;
26822;SDS011;14852;51.910;8.878;2022-12-10T00:29:02;14.52;;;10.07;;
26822;SDS011;14852;51.910;8.878;2022-12-10T00:31:32;15.90;;;11.65;;
26822;SDS011;14852;51.910;8.878;2022-12-10T00:34:02;14.77;;;9.95;;
26822;SDS011;14852;51.910;8.878;2022-12-10T00:36:34;14.43;;;10.75;;
26822;SDS011;14852;51.910;8.878;2022-12-10T00:41:33;14.07;;;10.18;;
26822;SDS011;14852;51.910;8.878;2022-12-10T00:44:00;17.55;;;11.05;;
26822;SDS011;14852;51.910;8.878;2022-12-10T00:46:26;16.75;;;10.63;;
26822;SDS011;14852;51.910;8.878;2022-12-10T00:48:52;15.82;;;11.65;;
26822;SDS011;14852;51.910;8.878;2022-12-10T00:51:21;16.52;;;11.07;;
26822;SDS011;14852;51.910;8.878;2022-12-10T00:53:50;16.27;;;11.68;;
26822;SDS011;14852;51.910;8.878;2022-12-10T00:56:20;16.63;;;11.40;;
26822;SDS011;14852;51.910;8.878;2022-12-10T00:58:51;18.63;;;13.02;;
26822;SDS011;14852;51.910;8.878;2022-12-10T01:04:27;30.90;;;18.95;;
26822;SDS011;14852;51.910;8.878;2022-12-10T01:06:53;28.02;;;17.27;;
26822;SDS011;14852;51.910;8.878;2022-12-10T01:09:22;30.52;;;17.60;;
26822;SDS011;14852;51.910;8.878;2022-12-10T01:11:52;20.02;;;14.15;;
26822;SDS011;14852;51.910;8.878;2022-12-10T01:14:24;25.63;;;15.07;;
26822;SDS011;14852;51.910;8.878;2022-12-10T01:17:13;20.70;;;13.50;;
26822;SDS011;14852;51.910;8.878;2022-12-10T01:19:55;18.60;;;12.07;;
26822;SDS011;14852;51.910;8.878;2022-12-10T01:22:21;21.05;;;13.68;;
26822;SDS011;14852;51.910;8.878;2022-12-10T01:24:46;15.15;;;12.13;;
26822;SDS011;14852;51.910;8.878;2022-12-10T01:27:12;18.00;;;13.00;;
26822;SDS011;14852;51.910;8.878;2022-12-10T01:29:38;18.92;;;12.35;;
26822;SDS011;14852;51.910;8.878;2022-12-10T01:32:06;20.25;;;12.95;;
26822;SDS011;14852;51.910;8.878;2022-12-10T01:34:32;17.90;;;12.35;;
26822;SDS011;14852;51.910;8.878;2022-12-10T01:36:57;17.08;;;11.43;;
26822;SDS011;14852;51.910;8.878;2022-12-10T01:39:23;19.60;;;13.32;;
26822;SDS011;14852;51.910;8.878;2022-12-10T01:42:00;14.77;;;10.90;;
26822;SDS011;14852;51.910;8.878;2022-12-10T01:47:00;15.88;;;12.07;;
26822;SDS011;14852;51.910;8.878;2022-12-10T01:49:37;20.27;;;13.30;;
26822;SDS011;14852;51.910;8.878;2022-12-10T01:52:11;15.48;;;11.23;;
26822;SDS011;14852;51.910;8.878;2022-12-10T01:54:41;18.00;;;11.40;;
26822;SDS011;14852;51.910;8.878;2022-12-10T01:57:14;18.20;;;11.85;;
26822;SDS011;14852;51.910;8.878;2022-12-10T02:00:04;17.42;;;12.18;;
26822;SDS011;14852;51.910;8.878;2022-12-10T02:02:46;15.15;;;11.05;;
26822;SDS011;14852;51.910;8.878;2022-12-10T02:05:30;14.85;;;10.73;;
26822;SDS011;14852;51.910;8.878;2022-12-10T02:08:23;16.50;;;12.00;;
26822;SDS011;14852;51.910;8.878;2022-12-10T02:11:14;17.30;;;10.77;;
26822;SDS011;14852;51.910;8.878;2022-12-10T02:16:56;15.70;;;10.35;;
26822;SDS011;14852;51.910;8.878;2022-12-10T02:20:06;16.70;;;10.68;;
26822;SDS011;14852;51.910;8.878;2022-12-10T02:22:48;16.58;;;11.85;;
26822;SDS011;14852;51.910;8.878;2022-12-10T02:31:10;21.00;;;11.25;;
26822;SDS011;14852;51.910;8.878;2022-12-10T02:33:42;15.75;;;11.15;;
26822;SDS011;14852;51.910;8.878;2022-12-10T02:36:14;20.27;;;11.20;;
26822;SDS011;14852;51.910;8.878;2022-12-10T02:38:42;17.02;;;10.57;;
26822;SDS011;14852;51.910;8.878;2022-12-10T02:41:13;17.52;;;12.20;;
26822;SDS011;14852;51.910;8.878;2022-12-10T02:43:50;20.08;;;12.40;;
26822;SDS011;14852;51.910;8.878;2022-12-10T02:46:19;17.95;;;11.70;;
26822;SDS011;14852;51.910;8.878;2022-12-10T02:48:48;19.92;;;13.07;;
26822;SDS011;14852;51.910;8.878;2022-12-10T02:51:15;17.77;;;12.98;;
26822;SDS011;14852;51.910;8.878;2022-12-10T02:53:41;17.77;;;11.13;;
26822;SDS011;14852;51.910;8.878;2022-12-10T02:59:23;17.65;;;11.30;;
26822;SDS011;14852;51.910;8.878;2022-12-10T03:02:16;21.40;;;13.48;;
26822;SDS011;14852;51.910;8.878;2022-12-10T03:05:11;20.63;;;12.15;;
26822;SDS011;14852;51.910;8.878;2022-12-10T03:11:13;18.80;;;12.32;;
26822;SDS011;14852;51.910;8.878;2022-12-10T03:13:51;19.50;;;13.27;;
26822;SDS011;14852;51.910;8.878;2022-12-10T03:16:31;18.60;;;12.75;;
26822;SDS011;14852;51.910;8.878;2022-12-10T03:19:10;17.42;;;11.48;;
26822;SDS011;14852;51.910;8.878;2022-12-10T03:21:41;16.45;;;12.45;;
26822;SDS011;14852;51.910;8.878;2022-12-10T03:24:10;19.15;;;11.80;;
26822;SDS011;14852;51.910;8.878;2022-12-10T03:26:36;14.60;;;10.10;;
26822;SDS011;14852;51.910;8.878;2022-12-10T03:29:06;20.90;;;13.25;;
26822;SDS011;14852;51.910;8.878;2022-12-10T03:31:43;20.00;;;12.35;;
26822;SDS011;14852;51.910;8.878;2022-12-10T03:34:10;16.83;;;11.80;;
26822;SDS011;14852;51.910;8.878;2022-12-10T03:36:37;17.88;;;12.05;;
26822;SDS011;14852;51.910;8.878;2022-12-10T03:39:04;19.00;;;12.10;;
26822;SDS011;14852;51.910;8.878;2022-12-10T03:41:31;22.17;;;13.10;;
26822;SDS011;14852;51.910;8.878;2022-12-10T03:43:57;19.05;;;12.15;;
26822;SDS011;14852;51.910;8.878;2022-12-10T03:46:25;19.77;;;13.27;;
26822;SDS011;14852;51.910;8.878;2022-12-10T03:48:54;19.33;;;11.95;;
26822;SDS011;14852;51.910;8.878;2022-12-10T03:51:21;19.50;;;12.23;;
26822;SDS011;14852;51.910;8.878;2022-12-10T03:53:47;16.85;;;11.48;;
26822;SDS011;14852;51.910;8.878;2022-12-10T03:56:19;18.30;;;11.50;;
26822;SDS011;14852;51.910;8.878;2022-12-10T03:58:46;17.30;;;12.13;;
26822;SDS011;14852;51.910;8.878;2022-12-10T04:01:13;17.75;;;11.98;;
26822;SDS011;14852;51.910;8.878;2022-12-10T04:03:40;18.27;;;12.55;;
26822;SDS011;14852;51.910;8.878;2022-12-10T04:06:11;21.42;;;13.32;;
26822;SDS011;14852;51.910;8.878;2022-12-10T04:08:43;18.33;;;12.27;;
26822;SDS011;14852;51.910;8.878;2022-12-10T04:11:10;18.27;;;11.98;;
26822;SDS011;14852;51.910;8.878;2022-12-10T04:13:37;19.73;;;13.07;;
26822;SDS011;14852;51.910;8.878;2022-12-10T04:16:23;18.58;;;11.38;;
26822;SDS011;14852;51.910;8.878;2022-12-10T04:19:12;19.52;;;12.15;;
26822;SDS011;14852;51.910;8.878;2022-12-10T04:21:41;20.25;;;12.85;;
26822;SDS011;14852;51.910;8.878;2022-12-10T04:24:29;22.33;;;12.85;;
26822;SDS011;14852;51.910;8.878;2022-12-10T04:29:53;19.05;;;12.20;;
26822;SDS011;14852;51.910;8.878;2022-12-10T04:32:22;18.17;;;12.13;;
26822;SDS011;14852;51.910;8.878;2022-12-10T04:34:49;17.88;;;12.02;;
26822;SDS011;14852;51.910;8.878;2022-12-10T04:37:15;16.30;;;11.32;;
26822;SDS011;14852;51.910;8.878;2022-12-10T04:39:43;19.38;;;12.90;;
26822;SDS011;14852;51.910;8.878;2022-12-10T04:42:09;18.15;;;12.20;;
26822;SDS011;14852;51.910;8.878;2022-12-10T04:44:35;16.63;;;10.93;;
26822;SDS011;14852;51.910;8.878;2022-12-10T04:47:03;17.83;;;13.02;;
26822;SDS011;14852;51.910;8.878;2022-12-10T04:49:31;17.63;;;12.93;;
26822;SDS011;14852;51.910;8.878;2022-12-10T04:51:57;18.23;;;12.50;;
26822;SDS011;14852;51.910;8.878;2022-12-10T04:54:23;19.80;;;13.10;;
26822;SDS011;14852;51.910;8.878;2022-12-10T04:56:50;17.70;;;11.43;;
26822;SDS011;14852;51.910;8.878;2022-12-10T04:59:17;19.27;;;13.25;;
26822;SDS011;14852;51.910;8.878;2022-12-10T05:01:43;17.02;;;11.10;;
26822;SDS011;14852;51.910;8.878;2022-12-10T05:04:10;19.40;;;12.63;;
26822;SDS011;14852;51.910;8.878;2022-12-10T05:06:39;24.40;;;15.20;;
26822;SDS011;14852;51.910;8.878;2022-12-10T05:09:05;22.63;;;13.35;;
26822;SDS011;14852;51.910;8.878;2022-12-10T05:11:32;21.95;;;13.98;;
26822;SDS011;14852;51.910;8.878;2022-12-10T05:13:58;23.90;;;13.63;;
26822;SDS011;14852;51.910;8.878;2022-12-10T05:16:26;22.58;;;15.27;;
26822;SDS011;14852;51.910;8.878;2022-12-10T05:18:54;22.17;;;14.48;;
26822;SDS011;14852;51.910;8.878;2022-12-10T05:21:21;19.98;;;13.27;;
26822;SDS011;14852;51.910;8.878;2022-12-10T05:23:51;23.85;;;15.45;;
26822;SDS011;14852;51.910;8.878;2022-12-10T05:26:21;23.13;;;15.55;;
26822;SDS011;14852;51.910;8.878;2022-12-10T05:28:51;25.67;;;15.90;;
26822;SDS011;14852;51.910;8.878;2022-12-10T05:31:27;25.35;;;16.25;;
26822;SDS011;14852;51.910;8.878;2022-12-10T05:33:57;19.88;;;14.13;;
26822;SDS011;14852;51.910;8.878;2022-12-10T05:36:27;38.28;;;15.98;;
26822;SDS011;14852;51.910;8.878;2022-12-10T05:38:56;23.60;;;15.00;;
26822;SDS011;14852;51.910;8.878;2022-12-10T05:41:28;23.58;;;15.27;;
26822;SDS011;14852;51.910;8.878;2022-12-10T05:43:56;20.58;;;14.27;;
26822;SDS011;14852;51.910;8.878;2022-12-10T05:46:28;22.73;;;15.68;;
26822;SDS011;14852;51.910;8.878;2022-12-10T05:48:57;25.20;;;15.73;;
26822;SDS011;14852;51.910;8.878;2022-12-10T05:51:25;23.48;;;15.05;;
26822;SDS011;14852;51.910;8.878;2022-12-10T05:53:55;22.90;;;15.10;;
26822;SDS011;14852;51.910;8.878;2022-12-10T05:56:24;23.40;;;13.90;;
26822;SDS011;14852;51.910;8.878;2022-12-10T05:58:51;24.60;;;16.17;;
26822;SDS011;14852;51.910;8.878;2022-12-10T06:01:23;26.50;;;16.02;;
26822;SDS011;14852;51.910;8.878;2022-12-10T06:03:51;24.50;;;14.73;;
26822;SDS011;14852;51.910;8.878;2022-12-10T06:06:21;29.52;;;17.52;;
26822;SDS011;14852;51.910;8.878;2022-12-10T06:08:49;26.90;;;17.63;;
26822;SDS011;14852;51.910;8.878;2022-12-10T06:11:16;24.08;;;16.08;;
26822;SDS011;14852;51.910;8.878;2022-12-10T06:13:42;24.02;;;15.75;;
26822;SDS011;14852;51.910;8.878;2022-12-10T06:16:09;26.58;;;15.32;;
26822;SDS011;14852;51.910;8.878;2022-12-10T06:18:37;21.55;;;15.15;;
26822;SDS011;14852;51.910;8.878;2022-12-10T06:21:04;23.35;;;14.93;;
26822;SDS011;14852;51.910;8.878;2022-12-10T06:23:37;27.25;;;15.77;;
26822;SDS011;14852;51.910;8.878;2022-12-10T06:26:04;24.92;;;16.23;;
26822;SDS011;14852;51.910;8.878;2022-12-10T06:28:32;26.75;;;16.25;;
26822;SDS011;14852;51.910;8.878;2022-12-10T06:30:59;23.35;;;15.38;;
26822;SDS011;14852;51.910;8.878;2022-12-10T06:33:25;26.60;;;15.68;;
26822;SDS011;14852;51.910;8.878;2022-12-10T06:35:51;24.85;;;14.90;;
26822;SDS011;14852;51.910;8.878;2022-12-10T06:38:18;25.80;;;16.40;;
26822;SDS011;14852;51.910;8.878;2022-12-10T06:40:43;23.60;;;15.73;;
26822;SDS011;14852;51.910;8.878;2022-12-10T06:43:09;22.88;;;15.25;;
26822;SDS011;14852;51.910;8.878;2022-12-10T06:45:39;25.65;;;15.98;;
26822;SDS011;14852;51.910;8.878;2022-12-10T06:48:06;24.27;;;17.45;;
26822;SDS011;14852;51.910;8.878;2022-12-10T06:50:32;23.02;;;15.20;;
26822;SDS011;14852;51.910;8.878;2022-12-10T06:52:59;27.20;;;16.52;;
26822;SDS011;14852;51.910;8.878;2022-12-10T06:55:24;22.17;;;14.63;;
26822;SDS011;14852;51.910;8.878;2022-12-10T06:57:51;27.42;;;17.80;;
26822;SDS011;14852;51.910;8.878;2022-12-10T07:00:18;23.15;;;14.52;;
26822;SDS011;14852;51.910;8.878;2022-12-10T07:02:45;23.50;;;15.48;;
26822;SDS011;14852;51.910;8.878;2022-12-10T07:05:11;27.35;;;16.33;;
26822;SDS011;14852;51.910;8.878;2022-12-10T07:07:37;25.13;;;15.70;;
26822;SDS011;14852;51.910;8.878;2022-12-10T07:10:04;24.15;;;15.68;;
26822;SDS011;14852;51.910;8.878;2022-12-10T07:12:30;22.85;;;15.63;;
26822;SDS011;14852;51.910;8.878;2022-12-10T07:14:56;26.75;;;15.50;;
26822;SDS011;14852;51.910;8.878;2022-12-10T07:17:22;22.58;;;15.77;;
26822;SDS011;14852;51.910;8.878;2022-12-10T07:19:48;23.38;;;15.98;;
26822;SDS011;14852;51.910;8.878;2022-12-10T07:22:13;27.52;;;18.48;;
26822;SDS011;14852;51.910;8.878;2022-12-10T07:24:39;27.08;;;17.15;;
26822;SDS011;14852;51.910;8.878;2022-12-10T07:27:06;27.13;;;16.90;;
26822;SDS011;14852;51.910;8.878;2022-12-10T07:29:33;23.75;;;16.13;;
26822;SDS011;14852;51.910;8.878;2022-12-10T07:31:59;27.40;;;16.63;;
26822;SDS011;14852;51.910;8.878;2022-12-10T07:34:25;26.55;;;17.02;;
26822;SDS011;14852;51.910;8.878;2022-12-10T07:36:51;28.73;;;16.88;;
26822;SDS011;14852;51.910;8.878;2022-12-10T07:39:17;29.20;;;17.52;;
26822;SDS011;14852;51.910;8.878;2022-12-10T07:41:50;29.25;;;18.15;;
26822;SDS011;14852;51.910;8.878;2022-12-10T07:44:20;28.00;;;17.80;;
26822;SDS011;14852;51.910;8.878;2022-12-10T07:46:50;26.15;;;16.75;;
26822;SDS011;14852;51.910;8.878;2022-12-10T07:49:18;27.38;;;15.90;;
26822;SDS011;14852;51.910;8.878;2022-12-10T07:51:45;24.92;;;15.82;;
26822;SDS011;14852;51.910;8.878;2022-12-10T07:54:12;30.35;;;16.65;;
26822;SDS011;14852;51.910;8.878;2022-12-10T07:56:39;27.17;;;16.02;;
26822;SDS011;14852;51.910;8.878;2022-12-10T07:59:05;29.63;;;18.50;;
26822;SDS011;14852;51.910;8.878;2022-12-10T08:01:31;30.08;;;18.35;;
26822;SDS011;14852;51.910;8.878;2022-12-10T08:03:57;27.65;;;18.27;;
26822;SDS011;14852;51.910;8.878;2022-12-10T08:06:23;32.08;;;17.85;;
26822;SDS011;14852;51.910;8.878;2022-12-10T08:08:52;33.00;;;18.10;;
26822;SDS011;14852;51.910;8.878;2022-12-10T08:11:18;28.25;;;17.88;;
26822;SDS011;14852;51.910;8.878;2022-12-10T08:13:46;28.85;;;15.80;;
26822;SDS011;14852;51.910;8.878;2022-12-10T08:16:14;28.85;;;17.88;;
26822;SDS011;14852;51.910;8.878;2022-12-10T08:18:43;28.33;;;19.10;;
26822;SDS011;14852;51.910;8.878;2022-12-10T08:21:10;31.05;;;17.90;;
26822;SDS011;14852;51.910;8.878;2022-12-10T08:23:39;29.90;;;18.05;;
26822;SDS011;14852;51.910;8.878;2022-12-10T08:26:09;33.25;;;18.00;;
26822;SDS011;14852;51.910;8.878;2022-12-10T08:28:44;32.17;;;17.65;;
26822;SDS011;14852;51.910;8.878;2022-12-10T08:31:12;30.63;;;18.30;;
26822;SDS011;14852;51.910;8.878;2022-12-10T08:33:39;27.38;;;16.60;;
26822;SDS011;14852;51.910;8.878;2022-12-10T08:36:06;29.83;;;18.77;;
26822;SDS011;14852;51.910;8.878;2022-12-10T08:38:34;25.48;;;16.23;;
26822;SDS011;14852;51.910;8.878;2022-12-10T08:41:05;29.17;;;17.90;;
26822;SDS011;14852;51.910;8.878;2022-12-10T08:43:33;30.25;;;16.85;;
26822;SDS011;14852;51.910;8.878;2022-12-10T08:45:59;27.20;;;17.33;;
26822;SDS011;14852;51.910;8.878;2022-12-10T08:48:25;32.67;;;19.63;;
26822;SDS011;14852;51.910;8.878;2022-12-10T08:50:52;31.45;;;20.13;;
26822;SDS011;14852;51.910;8.878;2022-12-10T08:53:17;30.55;;;17.67;;
26822;SDS011;14852;51.910;8.878;2022-12-10T08:55:43;28.90;;;18.25;;
26822;SDS011;14852;51.910;8.878;2022-12-10T08:58:09;28.55;;;17.75;;
26822;SDS011;14852;51.910;8.878;2022-12-10T09:00:35;28.23;;;17.55;;
26822;SDS011;14852;51.910;8.878;2022-12-10T09:03:02;29.85;;;17.95;;
26822;SDS011;14852;51.910;8.878;2022-12-10T09:05:28;30.20;;;18.08;;
26822;SDS011;14852;51.910;8.878;2022-12-10T09:07:55;27.73;;;17.50;;
26822;SDS011;14852;51.910;8.878;2022-12-10T09:10:21;25.17;;;16.35;;
26822;SDS011;14852;51.910;8.878;2022-12-10T09:12:47;26.88;;;17.83;;
26822;SDS011;14852;51.910;8.878;2022-12-10T09:15:12;27.02;;;16.42;;
26822;SDS011;14852;51.910;8.878;2022-12-10T09:17:38;28.17;;;18.15;;
26822;SDS011;14852;51.910;8.878;2022-12-10T09:20:04;29.98;;;18.98;;
26822;SDS011;14852;51.910;8.878;2022-12-10T09:22:31;26.17;;;17.00;;
26822;SDS011;14852;51.910;8.878;2022-12-10T09:24:57;27.92;;;17.48;;
26822;SDS011;14852;51.910;8.878;2022-12-10T09:27:23;26.25;;;16.80;;
26822;SDS011;14852;51.910;8.878;2022-12-10T09:29:51;28.50;;;18.08;;
26822;SDS011;14852;51.910;8.878;2022-12-10T09:32:17;24.02;;;16.80;;
26822;SDS011;14852;51.910;8.878;2022-12-10T09:34:43;27.23;;;17.17;;
26822;SDS011;14852;51.910;8.878;2022-12-10T09:37:09;25.80;;;17.92;;
26822;SDS011;14852;51.910;8.878;2022-12-10T09:39:34;25.40;;;16.65;;
26822;SDS011;14852;51.910;8.878;2022-12-10T09:45:25;24.45;;;15.75;;
26822;SDS011;14852;51.910;8.878;2022-12-10T09:47:54;24.33;;;16.55;;
26822;SDS011;14852;51.910;8.878;2022-12-10T09:50:35;25.33;;;16.17;;
26822;SDS011;14852;51.910;8.878;2022-12-10T09:53:22;12.73;;;8.98;;
26822;SDS011;14852;51.910;8.878;2022-12-10T09:55:52;10.95;;;8.05;;
26822;SDS011;14852;51.910;8.878;2022-12-10T09:58:19;10.65;;;6.38;;
26822;SDS011;14852;51.910;8.878;2022-12-10T10:00:52;7.85;;;5.70;;
26822;SDS011;14852;51.910;8.878;2022-12-10T10:03:26;7.15;;;5.80;;
26822;SDS011;14852;51.910;8.878;2022-12-10T10:05:59;8.68;;;6.20;;
26822;SDS011;14852;51.910;8.878;2022-12-10T10:11:17;8.00;;;5.88;;
26822;SDS011;14852;51.910;8.878;2022-12-10T10:16:27;8.43;;;5.97;;
26822;SDS011;14852;51.910;8.878;2022-12-10T10:19:12;7.20;;;5.63;;
26822;SDS011;14852;51.910;8.878;2022-12-10T10:21:41;8.15;;;5.28;;
26822;SDS011;14852;51.910;8.878;2022-12-10T10:24:14;8.05;;;6.07;;
26822;SDS011;14852;51.910;8.878;2022-12-10T10:29:13;8.63;;;6.50;;
26822;SDS011;14852;51.910;8.878;2022-12-10T10:31:45;8.30;;;5.93;;
26822;SDS011;14852;51.910;8.878;2022-12-10T10:34:19;11.68;;;5.90;;
26822;SDS011;14852;51.910;8.878;2022-12-10T10:36:47;8.82;;;6.25;;
26822;SDS011;14852;51.910;8.878;2022-12-10T10:39:26;10.50;;;6.90;;
26822;SDS011;14852;51.910;8.878;2022-12-10T10:41:56;11.05;;;8.07;;
26822;SDS011;14852;51.910;8.878;2022-12-10T10:44:25;11.30;;;7.50;;
26822;SDS011;14852;51.910;8.878;2022-12-10T10:46:58;12.90;;;9.18;;
26822;SDS011;14852;51.910;8.878;2022-12-10T10:51:54;15.07;;;8.95;;
26822;SDS011;14852;51.910;8.878;2022-12-10T10:54:37;12.13;;;8.45;;
26822;SDS011;14852;51.910;8.878;2022-12-10T10:57:10;10.73;;;7.88;;
26822;SDS011;14852;51.910;8.878;2022-12-10T10:59:49;13.10;;;8.80;;
26822;SDS011;14852;51.910;8.878;2022-12-10T11:02:36;9.88;;;7.32;;
26822;SDS011;14852;51.910;8.878;2022-12-10T11:05:29;8.90;;;6.50;;
26822;SDS011;14852;51.910;8.878;2022-12-10T11:08:03;10.93;;;7.00;;
26822;SDS011;14852;51.910;8.878;2022-12-10T11:10:38;9.50;;;6.95;;
26822;SDS011;14852;51.910;8.878;2022-12-10T11:13:26;7.43;;;6.22;;
26822;SDS011;14852;51.910;8.878;2022-12-10T11:16:09;8.88;;;6.68;;
26822;SDS011;14852;51.910;8.878;2022-12-10T11:18:57;9.23;;;6.22;;
26822;SDS011;14852;51.910;8.878;2022-12-10T11:21:39;9.57;;;7.45;;
26822;SDS011;14852;51.910;8.878;2022-12-10T11:24:16;16.92;;;11.40;;
26822;SDS011;14852;51.910;8.878;2022-12-10T11:27:03;14.38;;;11.27;;
26822;SDS011;14852;51.910;8.878;2022-12-10T11:30:00;14.52;;;10.13;;
26822;SDS011;14852;51.910;8.878;2022-12-10T11:38:50;11.35;;;8.13;;
26822;SDS011;14852;51.910;8.878;2022-12-10T11:41:53;9.50;;;6.70;;
26822;SDS011;14852;51.910;8.878;2022-12-10T11:51:31;13.73;;;9.55;;
26822;SDS011;14852;51.910;8.878;2022-12-10T12:05:30;11.75;;;9.45;;
26822;SDS011;14852;51.910;8.878;2022-12-10T12:14:39;15.85;;;9.00;;
26822;SDS011;14852;51.910;8.878;2022-12-10T12:19:58;13.63;;;9.45;;
26822;SDS011;14852;51.910;8.878;2022-12-10T12:22:42;15.25;;;10.95;;
26822;SDS011;14852;51.910;8.878;2022-12-10T12:25:22;16.58;;;10.48;;
26822;SDS011;14852;51.910;8.878;2022-12-10T12:28:12;15.63;;;10.50;;
26822;SDS011;14852;51.910;8.878;2022-12-10T12:30:47;16.02;;;11.30;;
26822;SDS011;14852;51.910;8.878;2022-12-10T12:33:43;18.30;;;12.07;;
26822;SDS011;14852;51.910;8.878;2022-12-10T12:36:27;15.82;;;11.30;;
26822;SDS011;14852;51.910;8.878;2022-12-10T12:41:57;14.10;;;10.88;;
26822;SDS011;14852;51.910;8.878;2022-12-10T12:45:00;15.18;;;11.82;;
26822;SDS011;14852;51.910;8.878;2022-12-10T12:53:42;13.35;;;10.50;;
26822;SDS011;14852;51.910;8.878;2022-12-10T13:01:53;15.45;;;10.63;;
26822;SDS011;14852;51.910;8.878;2022-12-10T13:04:41;12.88;;;9.93;;
26822;SDS011;14852;51.910;8.878;2022-12-10T13:10:23;14.25;;;9.70;;
26822;SDS011;14852;51.910;8.878;2022-12-10T13:12:32;13.43;;;9.20;;
26822;SDS011;14852;51.910;8.878;2022-12-10T13:20:47;14.93;;;9.77;;
26822;SDS011;14852;51.910;8.878;2022-12-10T13:26:42;14.02;;;10.20;;
26822;SDS011;14852;51.910;8.878;2022-12-10T13:33:03;14.10;;;10.27;;
26822;SDS011;14852;51.910;8.878;2022-12-10T13:35:49;13.82;;;10.13;;
26822;SDS011;14852;51.910;8.878;2022-12-10T13:38:25;14.52;;;10.90;;
26822;SDS011;14852;51.910;8.878;2022-12-10T13:41:00;14.43;;;10.30;;
26822;SDS011;14852;51.910;8.878;2022-12-10T13:43:55;16.30;;;11.05;;
26822;SDS011;14852;51.910;8.878;2022-12-10T13:49:29;13.05;;;9.13;;
26822;SDS011;14852;51.910;8.878;2022-12-10T13:52:04;11.48;;;8.05;;
26822;SDS011;14852;51.910;8.878;2022-12-10T13:54:41;13.95;;;9.35;;
26822;SDS011;14852;51.910;8.878;2022-12-10T13:57:34;14.68;;;10.60;;
26822;SDS011;14852;51.910;8.878;2022-12-10T14:00:22;15.10;;;9.48;;
26822;SDS011;14852;51.910;8.878;2022-12-10T14:03:04;13.88;;;9.65;;
26822;SDS011;14852;51.910;8.878;2022-12-10T14:08:40;13.75;;;8.95;;
26822;SDS011;14852;51.910;8.878;2022-12-10T14:11:20;11.30;;;8.57;;
26822;SDS011;14852;51.910;8.878;2022-12-10T14:13:53;14.27;;;9.40;;
26822;SDS011;14852;51.910;8.878;2022-12-10T14:16:26;13.10;;;9.45;;
26822;SDS011;14852;51.910;8.878;2022-12-10T14:19:11;12.30;;;9.80;;
26822;SDS011;14852;51.910;8.878;2022-12-10T14:21:41;12.63;;;9.30;;
26822;SDS011;14852;51.910;8.878;2022-12-10T14:24:25;14.10;;;10.23;;
26822;SDS011;14852;51.910;8.878;2022-12-10T14:27:05;12.27;;;9.68;;
26822;SDS011;14852;51.910;8.878;2022-12-10T14:29:42;14.23;;;9.07;;
26822;SDS011;14852;51.910;8.878;2022-12-10T14:32:18;13.32;;;9.95;;
26822;SDS011;14852;51.910;8.878;2022-12-10T14:34:55;11.45;;;8.05;;
26822;SDS011;14852;51.910;8.878;2022-12-10T14:37:25;13.10;;;9.18;;
26822;SDS011;14852;51.910;8.878;2022-12-10T14:39:55;13.98;;;9.45;;
26822;SDS011;14852;51.910;8.878;2022-12-10T14:42:22;13.57;;;9.70;;
26822;SDS011;14852;51.910;8.878;2022-12-10T14:44:58;13.10;;;9.57;;
26822;SDS011;14852;51.910;8.878;2022-12-10T14:47:32;14.85;;;11.15;;
26822;SDS011;14852;51.910;8.878;2022-12-10T14:50:03;14.70;;;9.95;;
26822;SDS011;14852;51.910;8.878;2022-12-10T14:52:40;14.18;;;10.63;;
26822;SDS011;14852;51.910;8.878;2022-12-10T14:55:16;14.38;;;10.88;;
26822;SDS011;14852;51.910;8.878;2022-12-10T14:57:54;15.25;;;11.43;;
26822;SDS011;14852;51.910;8.878;2022-12-10T15:00:26;17.58;;;11.32;;
26822;SDS011;14852;51.910;8.878;2022-12-10T15:02:57;16.17;;;11.57;;
26822;SDS011;14852;51.910;8.878;2022-12-10T15:05:32;13.98;;;10.70;;
26822;SDS011;14852;51.910;8.878;2022-12-10T15:10:34;16.50;;;11.25;;
26822;SDS011;14852;51.910;8.878;2022-12-10T15:13:04;15.35;;;11.00;;
26822;SDS011;14852;51.910;8.878;2022-12-10T15:15:36;16.20;;;12.40;;
26822;SDS011;14852;51.910;8.878;2022-12-10T15:23:18;19.55;;;12.18;;
26822;SDS011;14852;51.910;8.878;2022-12-10T15:28:25;18.35;;;13.55;;
26822;SDS011;14852;51.910;8.878;2022-12-10T15:30:57;18.88;;;12.68;;
26822;SDS011;14852;51.910;8.878;2022-12-10T15:34:00;16.63;;;11.45;;
26822;SDS011;14852;51.910;8.878;2022-12-10T15:36:34;16.40;;;11.57;;
26822;SDS011;14852;51.910;8.878;2022-12-10T15:39:20;18.60;;;11.95;;
26822;SDS011;14852;51.910;8.878;2022-12-10T15:41:56;17.55;;;11.25;;
26822;SDS011;14852;51.910;8.878;2022-12-10T15:44:31;16.90;;;11.80;;
26822;SDS011;14852;51.910;8.878;2022-12-10T15:47:20;17.45;;;11.32;;
26822;SDS011;14852;51.910;8.878;2022-12-10T15:49:51;15.65;;;10.05;;
26822;SDS011;14852;51.910;8.878;2022-12-10T15:52:23;16.27;;;11.35;;
26822;SDS011;14852;51.910;8.878;2022-12-10T15:54:53;14.27;;;10.65;;
26822;SDS011;14852;51.910;8.878;2022-12-10T15:57:25;15.25;;;11.50;;
26822;SDS011;14852;51.910;8.878;2022-12-10T15:59:58;15.10;;;10.52;;
26822;SDS011;14852;51.910;8.878;2022-12-10T16:02:41;17.50;;;11.65;;
26822;SDS011;14852;51.910;8.878;2022-12-10T16:05:31;16.23;;;11.35;;
26822;SDS011;14852;51.910;8.878;2022-12-10T16:08:11;15.55;;;11.07;;
26822;SDS011;14852;51.910;8.878;2022-12-10T16:10:46;18.35;;;12.13;;
26822;SDS011;14852;51.910;8.878;2022-12-10T16:13:28;15.63;;;10.60;;
26822;SDS011;14852;51.910;8.878;2022-12-10T16:16:09;16.00;;;10.65;;
26822;SDS011;14852;51.910;8.878;2022-12-10T16:18:35;15.98;;;11.43;;
26822;SDS011;14852;51.910;8.878;2022-12-10T16:21:03;14.95;;;10.30;;
26822;SDS011;14852;51.910;8.878;2022-12-10T16:23:31;16.35;;;11.60;;
26822;SDS011;14852;51.910;8.878;2022-12-10T16:25:57;16.48;;;11.68;;
26822;SDS011;14852;51.910;8.878;2022-12-10T16:28:23;15.63;;;11.18;;
26822;SDS011;14852;51.910;8.878;2022-12-10T16:30:50;17.95;;;11.02;;
26822;SDS011;14852;51.910;8.878;2022-12-10T16:33:19;15.82;;;11.10;;
26822;SDS011;14852;51.910;8.878;2022-12-10T16:35:48;16.00;;;11.68;;
26822;SDS011;14852;51.910;8.878;2022-12-10T16:38:16;16.15;;;11.07;;
26822;SDS011;14852;51.910;8.878;2022-12-10T16:40:44;17.55;;;11.85;;
26822;SDS011;14852;51.910;8.878;2022-12-10T16:43:15;18.50;;;12.55;;
26822;SDS011;14852;51.910;8.878;2022-12-10T16:45:47;15.98;;;11.65;;
26822;SDS011;14852;51.910;8.878;2022-12-10T16:48:14;17.27;;;12.32;;
26822;SDS011;14852;51.910;8.878;2022-12-10T16:50:41;16.13;;;11.40;;
26822;SDS011;14852;51.910;8.878;2022-12-10T16:58:19;14.73;;;9.75;;